Time;durP1;ratioP1;P1;durP2;ratioP2;P2;SDS_P1;SDS_P2;PMS_P1;PMS_P2;Temp;Humidity;BMP_temperature;BMP_pressure;BME280_temperature;BME280_humidity;BME280_pressure;Samples;Min_cycle;Max_cycle;Signal;HPM_P1;HPM_P2
2021/08/31 00:02:20;;;;;;;11.75;9.65;;;;;;;;;;5033459;28;20174;-68
2021/08/31 00:04:45;;;;;;;11.10;8.80;;;;;;;;;;5033545;28;20186;-68
2021/08/31 00:07:11;;;;;;;14.50;9.43;;;;;;;;;;5033123;28;20537;-68
2021/08/31 00:09:36;;;;;;;10.77;9.05;;;;;;;;;;5032200;28;20423;-68
2021/08/31 00:12:01;;;;;;;12.73;9.05;;;;;;;;;;5033108;28;20686;-68
2021/08/31 00:14:26;;;;;;;16.73;10.55;;;;;;;;;;5033040;28;20163;-68
2021/08/31 00:16:52;;;;;;;14.15;10.02;;;;;;;;;;5033486;28;20256;-68
2021/08/31 00:19:17;;;;;;;16.58;9.65;;;;;;;;;;5032766;28;20182;-68
2021/08/31 00:21:42;;;;;;;14.20;9.40;;;;;;;;;;5015493;28;20552;-68
2021/08/31 00:24:08;;;;;;;14.27;9.18;;;;;;;;;;5033326;28;20174;-68
2021/08/31 00:26:33;;;;;;;14.20;8.55;;;;;;;;;;5032796;28;20282;-68
2021/08/31 00:28:58;;;;;;;10.70;8.48;;;;;;;;;;5032804;28;20194;-68
2021/08/31 00:31:23;;;;;;;13.90;8.73;;;;;;;;;;5015377;28;20206;-69
2021/08/31 00:33:48;;;;;;;12.23;8.87;;;;;;;;;;5032963;28;20206;-68
2021/08/31 00:36:13;;;;;;;15.15;8.23;;;;;;;;;;5032939;28;20447;-69
2021/08/31 00:38:39;;;;;;;13.52;9.20;;;;;;;;;;5032774;28;20174;-68
2021/08/31 00:41:04;;;;;;;13.38;8.23;;;;;;;;;;5032562;28;20253;-69
2021/08/31 00:43:41;;;;;;;16.08;9.55;;;;;;;;;;5033194;28;20197;-68
2021/08/31 00:46:06;;;;;;;11.90;7.90;;;;;;;;;;5033952;28;20201;-69
2021/08/31 00:48:31;;;;;;;14.30;8.57;;;;;;;;;;5034725;28;20670;-69
2021/08/31 00:50:56;;;;;;;17.30;9.20;;;;;;;;;;5034328;28;20403;-69
2021/08/31 00:53:21;;;;;;;11.82;8.18;;;;;;;;;;5034874;28;20447;-69
2021/08/31 00:55:47;;;;;;;11.25;8.95;;;;;;;;;;5034693;28;20567;-69
2021/08/31 00:58:12;;;;;;;12.63;8.50;;;;;;;;;;5034297;28;20253;-68
2021/08/31 01:00:37;;;;;;;16.40;9.63;;;;;;;;;;5035114;28;20557;-69
2021/08/31 01:03:03;;;;;;;13.50;8.93;;;;;;;;;;5034469;28;20200;-69
2021/08/31 01:05:32;;;;;;;11.55;8.48;;;;;;;;;;5034268;28;20185;-69
2021/08/31 01:07:57;;;;;;;12.32;9.43;;;;;;;;;;5034473;28;20663;-69
2021/08/31 01:10:23;;;;;;;12.82;9.27;;;;;;;;;;5034341;28;20183;-69
2021/08/31 01:12:50;;;;;;;10.98;8.15;;;;;;;;;;5034846;28;20214;-69
2021/08/31 01:15:16;;;;;;;13.55;9.63;;;;;;;;;;5034691;28;20174;-69
2021/08/31 01:17:41;;;;;;;20.45;9.13;;;;;;;;;;5032576;28;20751;-69
2021/08/31 01:20:06;;;;;;;15.57;9.30;;;;;;;;;;5031235;28;20170;-70
2021/08/31 01:22:32;;;;;;;13.77;8.82;;;;;;;;;;5032019;28;20178;-69
2021/08/31 01:25:01;;;;;;;15.98;9.38;;;;;;;;;;5032307;28;20197;-69
2021/08/31 01:27:27;;;;;;;14.98;8.48;;;;;;;;;;5031519;28;20573;-68
2021/08/31 01:29:53;;;;;;;10.70;8.00;;;;;;;;;;5031791;28;20189;-68
2021/08/31 01:32:18;;;;;;;16.80;9.32;;;;;;;;;;5031825;28;20293;-68
2021/08/31 01:34:43;;;;;;;9.88;8.43;;;;;;;;;;5031821;28;20597;-68
2021/08/31 01:37:11;;;;;;;11.52;8.77;;;;;;;;;;5031550;28;20807;-68
2021/08/31 01:39:37;;;;;;;11.07;9.15;;;;;;;;;;5031682;28;20534;-68
2021/08/31 01:42:02;;;;;;;14.45;11.07;;;;;;;;;;5031405;28;20174;-68
2021/08/31 01:44:28;;;;;;;14.07;10.38;;;;;;;;;;5031733;28;20187;-68
2021/08/31 01:46:53;;;;;;;15.57;10.45;;;;;;;;;;5012941;28;20194;-68
2021/08/31 01:49:19;;;;;;;13.83;10.50;;;;;;;;;;5031206;28;20706;-68
2021/08/31 01:51:44;;;;;;;13.80;10.25;;;;;;;;;;5030899;28;20817;-68
2021/08/31 01:54:09;;;;;;;16.17;10.15;;;;;;;;;;5031583;28;20181;-68
2021/08/31 01:56:35;;;;;;;14.15;10.50;;;;;;;;;;5031437;28;20194;-68
2021/08/31 01:59:00;;;;;;;17.77;10.95;;;;;;;;;;5031112;28;20173;-69
2021/08/31 02:01:25;;;;;;;15.57;10.38;;;;;;;;;;5031344;28;20178;-68
2021/08/31 02:03:50;;;;;;;13.98;10.38;;;;;;;;;;5031264;28;20201;-67
2021/08/31 02:06:15;;;;;;;16.95;11.70;;;;;;;;;;5039794;22;20284;-70
2021/08/31 02:08:40;;;;;;;18.02;11.88;;;;;;;;;;5010846;28;20585;-70
2021/08/31 02:11:06;;;;;;;20.13;12.70;;;;;;;;;;5011490;28;20213;-70
2021/08/31 02:13:31;;;;;;;16.10;12.80;;;;;;;;;;5011314;28;20206;-70
2021/08/31 02:15:56;;;;;;;20.70;12.68;;;;;;;;;;5011248;28;20918;-70
2021/08/31 02:18:21;;;;;;;18.58;12.25;;;;;;;;;;5010977;28;20171;-70
2021/08/31 02:20:46;;;;;;;18.30;13.38;;;;;;;;;;5011313;28;20170;-70
2021/08/31 02:23:12;;;;;;;18.00;13.47;;;;;;;;;;5011421;28;20262;-71
2021/08/31 02:25:37;;;;;;;21.35;13.57;;;;;;;;;;5011548;28;20417;-70
2021/08/31 02:28:02;;;;;;;20.65;13.63;;;;;;;;;;5011138;28;20300;-71
2021/08/31 02:30:27;;;;;;;20.20;13.48;;;;;;;;;;4993433;28;20182;-70
2021/08/31 02:32:53;;;;;;;22.60;15.40;;;;;;;;;;5014030;28;20206;-70
2021/08/31 02:35:18;;;;;;;21.02;13.10;;;;;;;;;;5015213;28;20182;-69
2021/08/31 02:37:43;;;;;;;21.27;13.80;;;;;;;;;;5015123;28;20202;-70
2021/08/31 02:40:09;;;;;;;25.40;14.18;;;;;;;;;;5014798;28;20175;-70
2021/08/31 02:42:35;;;;;;;23.70;15.10;;;;;;;;;;5015317;28;20193;-70
2021/08/31 02:45:00;;;;;;;24.27;15.52;;;;;;;;;;5014975;28;20202;-70
2021/08/31 02:47:26;;;;;;;20.45;13.85;;;;;;;;;;5015057;28;20479;-70
2021/08/31 02:49:51;;;;;;;25.98;15.48;;;;;;;;;;5014782;28;20175;-70
2021/08/31 02:52:16;;;;;;;21.08;14.75;;;;;;;;;;5014928;28;20214;-70
2021/08/31 02:54:41;;;;;;;22.27;13.52;;;;;;;;;;5014856;28;20175;-70
2021/08/31 02:57:07;;;;;;;24.95;15.18;;;;;;;;;;5015896;28;20226;-70
2021/08/31 02:59:32;;;;;;;26.20;15.13;;;;;;;;;;5020754;28;20201;-70
2021/08/31 03:04:25;;;;;;;19.50;14.82;;;;;;;;;;5015218;28;20178;-70
2021/08/31 03:06:51;;;;;;;23.60;14.10;;;;;;;;;;5014623;28;20222;-70
2021/08/31 03:09:16;;;;;;;25.65;15.82;;;;;;;;;;5014360;28;21462;-70
2021/08/31 03:11:41;;;;;;;29.75;16.08;;;;;;;;;;5014794;28;20233;-70
2021/08/31 03:14:07;;;;;;;25.35;16.42;;;;;;;;;;4997073;28;20183;-70
2021/08/31 03:16:32;;;;;;;26.90;15.05;;;;;;;;;;5014206;28;20214;-70
2021/08/31 03:18:58;;;;;;;20.48;13.50;;;;;;;;;;5013913;28;20183;-70
2021/08/31 03:21:23;;;;;;;24.97;15.70;;;;;;;;;;5013337;28;20175;-70
2021/08/31 03:23:48;;;;;;;20.70;14.57;;;;;;;;;;5014559;28;20820;-70
2021/08/31 03:26:13;;;;;;;27.25;16.42;;;;;;;;;;5014109;28;20281;-70
2021/08/31 03:28:38;;;;;;;24.58;15.27;;;;;;;;;;5013906;28;20194;-70
2021/08/31 03:31:04;;;;;;;20.90;13.80;;;;;;;;;;5014254;28;20189;-70
2021/08/31 03:33:29;;;;;;;23.25;14.15;;;;;;;;;;5014164;28;20608;-70
2021/08/31 03:35:54;;;;;;;25.02;13.93;;;;;;;;;;4996566;28;20225;-70
2021/08/31 03:38:19;;;;;;;18.63;14.32;;;;;;;;;;5013779;28;20171;-70
2021/08/31 03:40:45;;;;;;;22.48;14.82;;;;;;;;;;5013976;28;20644;-70
2021/08/31 03:43:10;;;;;;;20.23;12.93;;;;;;;;;;4996846;28;20190;-70
2021/08/31 03:45:35;;;;;;;19.63;13.60;;;;;;;;;;5010715;28;20181;-70
2021/08/31 03:48:00;;;;;;;23.25;14.27;;;;;;;;;;5013775;28;20641;-71
2021/08/31 03:50:25;;;;;;;25.95;15.80;;;;;;;;;;5017106;28;20262;-70
2021/08/31 03:52:50;;;;;;;26.15;14.82;;;;;;;;;;4995980;28;20203;-70
2021/08/31 03:55:15;;;;;;;19.42;13.80;;;;;;;;;;4996238;28;20210;-70
2021/08/31 03:57:41;;;;;;;27.70;14.93;;;;;;;;;;5014047;28;20187;-70
2021/08/31 04:00:06;;;;;;;23.33;13.10;;;;;;;;;;5013610;28;20215;-70
2021/08/31 04:02:32;;;;;;;26.13;14.07;;;;;;;;;;5013606;28;20207;-70
2021/08/31 04:04:57;;;;;;;22.85;13.68;;;;;;;;;;5013649;28;20203;-71
2021/08/31 04:07:22;;;;;;;23.83;14.68;;;;;;;;;;5013212;28;20222;-70
2021/08/31 04:09:47;;;;;;;27.60;14.73;;;;;;;;;;5013563;28;20179;-70
2021/08/31 04:12:13;;;;;;;26.85;14.80;;;;;;;;;;5013023;28;20257;-70
2021/08/31 04:14:38;;;;;;;26.95;13.95;;;;;;;;;;4996151;28;20179;-70
2021/08/31 04:17:04;;;;;;;23.02;13.75;;;;;;;;;;5013160;28;20289;-70
2021/08/31 04:19:29;;;;;;;19.00;11.88;;;;;;;;;;5013027;28;20668;-70
2021/08/31 04:21:54;;;;;;;22.10;12.52;;;;;;;;;;5013630;28;20201;-69
2021/08/31 04:24:19;;;;;;;20.80;12.10;;;;;;;;;;5013330;28;20229;-70
2021/08/31 04:26:44;;;;;;;19.58;12.40;;;;;;;;;;5013010;28;20281;-70
2021/08/31 04:29:09;;;;;;;23.48;12.93;;;;;;;;;;5013061;28;20171;-69
2021/08/31 04:31:35;;;;;;;23.35;12.32;;;;;;;;;;5013403;28;20573;-70
2021/08/31 04:34:00;;;;;;;21.25;11.77;;;;;;;;;;5013224;28;20217;-70
2021/08/31 04:36:25;;;;;;;17.35;11.85;;;;;;;;;;5013289;28;20190;-70
2021/08/31 04:38:50;;;;;;;20.17;12.50;;;;;;;;;;5013013;28;20637;-70
2021/08/31 04:41:15;;;;;;;27.15;13.27;;;;;;;;;;5012997;28;20171;-70
2021/08/31 04:43:41;;;;;;;21.67;12.07;;;;;;;;;;5013351;28;20194;-70
2021/08/31 04:46:06;;;;;;;18.70;11.48;;;;;;;;;;5004352;28;20254;-70
2021/08/31 04:48:31;;;;;;;31.20;12.93;;;;;;;;;;5012890;28;20187;-70
2021/08/31 04:50:56;;;;;;;23.08;13.18;;;;;;;;;;5012871;28;20187;-69
2021/08/31 04:53:22;;;;;;;19.83;13.18;;;;;;;;;;5012590;28;20206;-70
2021/08/31 04:55:48;;;;;;;23.15;13.93;;;;;;;;;;5012122;28;20198;-69
2021/08/31 04:58:13;;;;;;;23.05;14.07;;;;;;;;;;5012267;28;20636;-70
2021/08/31 05:00:38;;;;;;;23.27;15.03;;;;;;;;;;5012571;28;20250;-69
2021/08/31 05:03:04;;;;;;;19.88;13.40;;;;;;;;;;5012399;28;20421;-69
2021/08/31 05:05:29;;;;;;;25.30;14.75;;;;;;;;;;5010748;28;20182;-69
2021/08/31 05:07:54;;;;;;;26.48;14.77;;;;;;;;;;5012273;28;20935;-70
2021/08/31 05:10:20;;;;;;;22.33;13.90;;;;;;;;;;5012266;28;20233;-70
2021/08/31 05:12:45;;;;;;;18.67;13.23;;;;;;;;;;5012227;28;20466;-70
2021/08/31 05:15:10;;;;;;;18.05;12.27;;;;;;;;;;5012603;28;20640;-70
2021/08/31 05:17:35;;;;;;;25.42;15.02;;;;;;;;;;5012031;28;20199;-70
2021/08/31 05:20:03;;;;;;;16.10;12.70;;;;;;;;;;5011748;28;20214;-71
2021/08/31 05:22:28;;;;;;;21.55;13.23;;;;;;;;;;4994788;28;20199;-70
2021/08/31 05:24:54;;;;;;;19.15;13.57;;;;;;;;;;5012300;28;20190;-70
2021/08/31 05:27:19;;;;;;;24.85;13.52;;;;;;;;;;5011970;28;20195;-69
2021/08/31 05:29:44;;;;;;;21.67;13.50;;;;;;;;;;5011898;28;20587;-70
2021/08/31 05:32:09;;;;;;;20.83;12.60;;;;;;;;;;5012064;28;20198;-69
2021/08/31 05:34:34;;;;;;;19.77;12.07;;;;;;;;;;5012159;28;20194;-69
2021/08/31 05:37:00;;;;;;;22.30;12.82;;;;;;;;;;5011735;28;20417;-69
2021/08/31 05:39:32;;;;;;;20.95;11.82;;;;;;;;;;5011799;28;20186;-69
2021/08/31 05:41:57;;;;;;;20.83;12.65;;;;;;;;;;4994092;28;20186;-69
2021/08/31 05:44:22;;;;;;;19.08;14.40;;;;;;;;;;5012017;28;20550;-69
2021/08/31 05:46:48;;;;;;;17.13;11.93;;;;;;;;;;5011545;28;20207;-69
2021/08/31 05:49:13;;;;;;;25.52;14.70;;;;;;;;;;5011399;28;20559;-69
2021/08/31 05:51:38;;;;;;;20.42;12.85;;;;;;;;;;5011672;28;20181;-69
2021/08/31 05:54:03;;;;;;;18.13;12.90;;;;;;;;;;5011664;28;20256;-69
2021/08/31 05:56:28;;;;;;;19.05;12.35;;;;;;;;;;5011735;28;20972;-69
2021/08/31 05:58:53;;;;;;;28.23;13.45;;;;;;;;;;5011245;28;20171;-69
2021/08/31 06:01:19;;;;;;;21.80;12.37;;;;;;;;;;5011748;28;20171;-69
2021/08/31 06:03:45;;;;;;;22.23;12.45;;;;;;;;;;5011426;28;20777;-69
2021/08/31 06:06:13;;;;;;;16.85;11.95;;;;;;;;;;5010239;28;20203;-71
2021/08/31 06:08:38;;;;;;;18.50;13.20;;;;;;;;;;5011258;28;20187;-69
2021/08/31 06:11:04;;;;;;;19.95;12.32;;;;;;;;;;5011365;28;20644;-69
2021/08/31 06:13:29;;;;;;;17.30;11.73;;;;;;;;;;4993735;28;20703;-69
2021/08/31 06:15:54;;;;;;;16.58;11.77;;;;;;;;;;5011308;28;20179;-69
2021/08/31 06:18:19;;;;;;;17.67;11.02;;;;;;;;;;5010736;28;20175;-69
2021/08/31 06:20:44;;;;;;;20.20;10.35;;;;;;;;;;5011223;28;20182;-69
2021/08/31 06:23:10;;;;;;;16.23;9.97;;;;;;;;;;5011504;28;20258;-69
2021/08/31 06:25:37;;;;;;;17.88;10.55;;;;;;;;;;5011232;28;20894;-70
2021/08/31 06:28:03;;;;;;;23.50;10.93;;;;;;;;;;5011327;28;20314;-69
2021/08/31 06:30:28;;;;;;;17.80;9.57;;;;;;;;;;5011058;28;20207;-70
2021/08/31 06:32:54;;;;;;;14.73;10.23;;;;;;;;;;5010000;28;20203;-72
2021/08/31 06:35:19;;;;;;;13.43;9.73;;;;;;;;;;5011154;28;20467;-71
2021/08/31 06:37:44;;;;;;;20.85;9.15;;;;;;;;;;5010045;28;20579;-72
2021/08/31 06:40:10;;;;;;;13.85;8.57;;;;;;;;;;5010669;28;20193;-71
2021/08/31 06:42:35;;;;;;;16.98;8.77;;;;;;;;;;5011294;28;20266;-71
2021/08/31 06:45:01;;;;;;;12.07;8.45;;;;;;;;;;5010955;28;20240;-72
2021/08/31 06:47:26;;;;;;;19.58;9.77;;;;;;;;;;5011120;28;20194;-71
2021/08/31 06:49:51;;;;;;;13.55;8.38;;;;;;;;;;5009462;28;20175;-69
2021/08/31 06:52:16;;;;;;;19.17;10.60;;;;;;;;;;5011107;28;20641;-69
2021/08/31 06:54:41;;;;;;;14.98;8.60;;;;;;;;;;5011026;28;20726;-70
2021/08/31 06:57:07;;;;;;;12.25;7.07;;;;;;;;;;5011580;28;20201;-69
2021/08/31 06:59:33;;;;;;;14.95;7.43;;;;;;;;;;5014777;28;20186;-70
2021/08/31 07:01:58;;;;;;;17.05;7.45;;;;;;;;;;4996100;28;20233;-69
2021/08/31 07:04:23;;;;;;;15.25;7.43;;;;;;;;;;5010963;28;20679;-70
2021/08/31 07:06:48;;;;;;;14.73;7.25;;;;;;;;;;5011112;28;20265;-69
2021/08/31 07:09:14;;;;;;;11.77;6.28;;;;;;;;;;5010433;28;20179;-70
2021/08/31 07:11:39;;;;;;;13.17;6.37;;;;;;;;;;5011359;28;20645;-70
2021/08/31 07:14:04;;;;;;;12.63;6.40;;;;;;;;;;5010731;28;20579;-70
2021/08/31 07:16:29;;;;;;;9.20;5.90;;;;;;;;;;5010873;28;20209;-69
2021/08/31 07:18:54;;;;;;;11.40;5.80;;;;;;;;;;5012705;28;20565;-70
2021/08/31 07:21:20;;;;;;;7.93;5.67;;;;;;;;;;5014645;28;20649;-69
2021/08/31 07:23:45;;;;;;;12.50;6.30;;;;;;;;;;5014873;28;20458;-69
2021/08/31 07:26:10;;;;;;;14.13;5.80;;;;;;;;;;5012948;28;20870;-69
2021/08/31 07:28:35;;;;;;;8.90;5.15;;;;;;;;;;5014138;28;20179;-70
2021/08/31 07:31:00;;;;;;;9.23;5.75;;;;;;;;;;5014294;28;20183;-72
2021/08/31 07:33:26;;;;;;;8.85;5.50;;;;;;;;;;5014529;28;20222;-71
2021/08/31 07:35:51;;;;;;;15.00;5.97;;;;;;;;;;5014212;28;20203;-72
2021/08/31 07:38:16;;;;;;;13.93;6.43;;;;;;;;;;5014292;28;20274;-71
2021/08/31 07:40:41;;;;;;;11.27;6.40;;;;;;;;;;5013886;28;20470;-72
2021/08/31 07:43:06;;;;;;;11.38;5.50;;;;;;;;;;5014132;28;20207;-72
2021/08/31 07:45:32;;;;;;;13.63;6.00;;;;;;;;;;5011496;28;20183;-72
2021/08/31 07:47:57;;;;;;;9.90;5.47;;;;;;;;;;5013935;28;20432;-70
2021/08/31 07:50:22;;;;;;;8.53;5.20;;;;;;;;;;5013953;28;20232;-70
2021/08/31 07:52:47;;;;;;;10.05;4.10;;;;;;;;;;5013953;28;20448;-70
2021/08/31 07:55:13;;;;;;;11.32;4.47;;;;;;;;;;5012457;28;20186;-70
2021/08/31 07:57:39;;;;;;;8.02;4.50;;;;;;;;;;4996001;28;20205;-71
2021/08/31 08:00:05;;;;;;;12.30;4.85;;;;;;;;;;5013518;28;20917;-71
2021/08/31 08:02:33;;;;;;;12.65;4.40;;;;;;;;;;5013430;28;20190;-71
2021/08/31 08:04:59;;;;;;;10.23;4.57;;;;;;;;;;5013392;28;20175;-71
2021/08/31 08:07:27;;;;;;;7.93;4.25;;;;;;;;;;5005671;23;20237;-69
2021/08/31 08:09:53;;;;;;;9.35;4.20;;;;;;;;;;4995735;28;20559;-69
2021/08/31 08:12:18;;;;;;;9.45;3.83;;;;;;;;;;4995420;28;20226;-68
2021/08/31 08:14:43;;;;;;;7.07;3.47;;;;;;;;;;4994488;28;20588;-69
2021/08/31 08:17:09;;;;;;;10.37;4.30;;;;;;;;;;4994957;28;20204;-69
2021/08/31 08:19:34;;;;;;;5.70;3.55;;;;;;;;;;4994190;28;20434;-68
2021/08/31 08:21:59;;;;;;;8.30;4.63;;;;;;;;;;4994991;28;20172;-68
2021/08/31 08:24:24;;;;;;;13.55;4.80;;;;;;;;;;4994111;28;20226;-68
2021/08/31 08:26:52;;;;;;;8.97;3.97;;;;;;;;;;4994020;28;20200;-68
2021/08/31 08:29:17;;;;;;;8.50;3.92;;;;;;;;;;4992849;28;20499;-68
2021/08/31 08:31:45;;;;;;;8.10;3.90;;;;;;;;;;4993954;28;20266;-68
2021/08/31 08:34:10;;;;;;;13.50;4.18;;;;;;;;;;4993738;28;20207;-68
2021/08/31 08:36:35;;;;;;;10.55;4.50;;;;;;;;;;4993620;28;20206;-69
2021/08/31 08:39:00;;;;;;;8.23;4.00;;;;;;;;;;4993628;28;20263;-68
2021/08/31 08:41:25;;;;;;;10.20;3.83;;;;;;;;;;4993479;28;20421;-68
2021/08/31 08:43:51;;;;;;;6.47;3.30;;;;;;;;;;4991641;28;20401;-68
2021/08/31 08:46:16;;;;;;;10.45;4.18;;;;;;;;;;4992308;28;20437;-68
2021/08/31 08:48:44;;;;;;;10.30;4.30;;;;;;;;;;4993358;28;20610;-68
2021/08/31 08:51:09;;;;;;;9.23;4.10;;;;;;;;;;4993285;28;20723;-67
2021/08/31 08:53:35;;;;;;;10.30;4.55;;;;;;;;;;4993134;28;20204;-68
2021/08/31 08:56:01;;;;;;;10.38;3.90;;;;;;;;;;4993139;28;20198;-68
2021/08/31 08:58:26;;;;;;;7.28;3.67;;;;;;;;;;4992878;28;20295;-68
2021/08/31 09:00:53;;;;;;;7.63;3.67;;;;;;;;;;4993234;28;20168;-69
2021/08/31 09:03:22;;;;;;;7.90;4.03;;;;;;;;;;4993341;28;20704;-68
2021/08/31 09:05:48;;;;;;;7.45;3.83;;;;;;;;;;4992397;28;20275;-69
2021/08/31 09:08:13;;;;;;;6.88;3.58;;;;;;;;;;4992925;28;20303;-69
2021/08/31 09:10:42;;;;;;;10.18;3.78;;;;;;;;;;4992913;28;20678;-69
2021/08/31 09:13:07;;;;;;;8.93;4.10;;;;;;;;;;4993113;28;20716;-69
2021/08/31 09:15:32;;;;;;;13.27;4.28;;;;;;;;;;4993047;28;20187;-69
2021/08/31 09:18:04;;;;;;;9.43;4.43;;;;;;;;;;4992784;28;20196;-68
2021/08/31 09:20:29;;;;;;;10.73;3.50;;;;;;;;;;4987677;28;20417;-68
2021/08/31 09:22:54;;;;;;;10.00;4.10;;;;;;;;;;4992984;28;20557;-69
2021/08/31 09:25:30;;;;;;;9.63;4.45;;;;;;;;;;4992826;28;20183;-69
2021/08/31 09:27:56;;;;;;;11.88;4.55;;;;;;;;;;4991651;28;20668;-69
2021/08/31 09:30:23;;;;;;;12.32;4.78;;;;;;;;;;4992196;28;20249;-69
2021/08/31 09:33:08;;;;;;;13.20;4.50;;;;;;;;;;4992459;28;20699;-69
2021/08/31 09:35:42;;;;;;;11.32;4.03;;;;;;;;;;4988699;28;20573;-67
2021/08/31 09:38:08;;;;;;;7.95;3.72;;;;;;;;;;4992485;28;20201;-68
2021/08/31 09:40:38;;;;;;;9.65;5.25;;;;;;;;;;4992201;28;20175;-69
2021/08/31 09:43:04;;;;;;;10.00;4.28;;;;;;;;;;4992399;28;20179;-68
2021/08/31 09:45:31;;;;;;;6.85;4.07;;;;;;;;;;4989599;28;20172;-68
2021/08/31 09:47:57;;;;;;;8.73;4.30;;;;;;;;;;4992407;28;20195;-69
2021/08/31 09:50:30;;;;;;;12.23;3.97;;;;;;;;;;4989661;28;20175;-69
2021/08/31 09:53:01;;;;;;;10.82;4.95;;;;;;;;;;4992430;28;20199;-69
2021/08/31 09:55:26;;;;;;;8.38;4.07;;;;;;;;;;4991238;28;20182;-69
2021/08/31 09:58:05;;;;;;;10.80;4.83;;;;;;;;;;4990825;28;20615;-69
2021/08/31 10:00:30;;;;;;;8.00;4.47;;;;;;;;;;4982223;28;20199;-69
2021/08/31 10:02:55;;;;;;;11.88;4.85;;;;;;;;;;4989143;28;20646;-69
2021/08/31 10:05:24;;;;;;;8.00;3.90;;;;;;;;;;4991467;28;20184;-69
2021/08/31 10:07:49;;;;;;;7.90;3.90;;;;;;;;;;4991791;28;20646;-69
2021/08/31 10:10:14;;;;;;;9.57;4.27;;;;;;;;;;4991738;28;20184;-69
2021/08/31 10:12:39;;;;;;;8.80;4.60;;;;;;;;;;4991894;28;20448;-69
2021/08/31 10:15:05;;;;;;;9.77;4.00;;;;;;;;;;4991923;28;20186;-69
2021/08/31 10:17:30;;;;;;;12.20;4.75;;;;;;;;;;4991700;28;20206;-69
2021/08/31 10:19:58;;;;;;;10.33;4.47;;;;;;;;;;4991118;28;20171;-69
2021/08/31 10:22:23;;;;;;;10.45;4.40;;;;;;;;;;4983996;28;20397;-69
2021/08/31 10:24:48;;;;;;;10.45;4.25;;;;;;;;;;4991860;28;20246;-69
2021/08/31 10:27:27;;;;;;;10.45;4.05;;;;;;;;;;4991699;28;20618;-69
2021/08/31 10:30:13;;;;;;;9.43;4.07;;;;;;;;;;4991763;28;20587;-69
2021/08/31 10:32:38;;;;;;;12.93;4.55;;;;;;;;;;4986802;28;20201;-69
2021/08/31 10:35:04;;;;;;;7.63;4.22;;;;;;;;;;4991920;28;20175;-68
2021/08/31 10:37:42;;;;;;;12.45;3.88;;;;;;;;;;4991644;28;20287;-68
2021/08/31 10:40:08;;;;;;;10.65;3.35;;;;;;;;;;4991917;28;20673;-68
2021/08/31 10:42:33;;;;;;;7.03;3.80;;;;;;;;;;4991736;28;20188;-68
2021/08/31 10:45:04;;;;;;;6.97;3.63;;;;;;;;;;4991891;28;20186;-69
2021/08/31 10:47:31;;;;;;;6.47;3.60;;;;;;;;;;4991308;28;20953;-69
2021/08/31 10:49:56;;;;;;;7.97;3.60;;;;;;;;;;4991622;28;20230;-68
2021/08/31 10:52:35;;;;;;;8.63;4.50;;;;;;;;;;4991874;28;20199;-69
2021/08/31 10:55:01;;;;;;;6.68;3.92;;;;;;;;;;4995661;28;20413;-69
2021/08/31 10:57:35;;;;;;;6.78;3.47;;;;;;;;;;4995490;28;20187;-69
2021/08/31 11:00:04;;;;;;;8.20;3.50;;;;;;;;;;4993761;28;20237;-68
2021/08/31 11:05:24;;;;;;;6.75;3.75;;;;;;;;;;4995192;28;20186;-68
2021/08/31 11:07:50;;;;;;;7.40;3.65;;;;;;;;;;4995070;28;20227;-68
2021/08/31 11:10:34;;;;;;;6.50;3.50;;;;;;;;;;4995247;28;20672;-68
2021/08/31 11:13:12;;;;;;;7.97;3.75;;;;;;;;;;4995064;28;20207;-68
2021/08/31 11:15:37;;;;;;;6.15;3.50;;;;;;;;;;4995082;28;20203;-68
2021/08/31 11:18:08;;;;;;;8.15;3.65;;;;;;;;;;4994905;28;20204;-68
2021/08/31 11:20:33;;;;;;;7.53;3.83;;;;;;;;;;4994665;28;20258;-69
2021/08/31 11:23:14;;;;;;;9.43;3.95;;;;;;;;;;4994933;28;20274;-68
2021/08/31 11:26:02;;;;;;;10.57;3.58;;;;;;;;;;4994933;28;20194;-68
2021/08/31 11:28:28;;;;;;;7.35;3.60;;;;;;;;;;4988172;28;20258;-68
2021/08/31 11:30:56;;;;;;;8.07;4.00;;;;;;;;;;4994881;28;20255;-68
2021/08/31 11:33:24;;;;;;;7.10;4.13;;;;;;;;;;4994816;28;20291;-69
2021/08/31 11:36:00;;;;;;;8.65;4.20;;;;;;;;;;4994855;28;20187;-69
2021/08/31 11:38:29;;;;;;;6.40;4.10;;;;;;;;;;4989132;28;20206;-69
2021/08/31 11:40:54;;;;;;;8.57;3.70;;;;;;;;;;4989059;28;20172;-69
2021/08/31 11:43:28;;;;;;;11.07;3.80;;;;;;;;;;4993957;28;20222;-68
2021/08/31 11:45:54;;;;;;;10.00;4.22;;;;;;;;;;4994885;28;20541;-68
2021/08/31 11:48:23;;;;;;;7.18;3.40;;;;;;;;;;4994310;28;20206;-69
2021/08/31 11:50:54;;;;;;;8.68;3.63;;;;;;;;;;4994577;28;20180;-68
2021/08/31 11:53:19;;;;;;;7.00;3.83;;;;;;;;;;4994400;28;20206;-68
2021/08/31 11:56:14;;;;;;;6.13;3.20;;;;;;;;;;4994571;28;20168;-68
2021/08/31 11:58:41;;;;;;;5.13;3.05;;;;;;;;;;4983643;28;20674;-69
2021/08/31 12:01:06;;;;;;;6.00;2.92;;;;;;;;;;4993794;28;20230;-68
2021/08/31 12:03:31;;;;;;;9.60;3.50;;;;;;;;;;4994161;28;20259;-68
2021/08/31 12:06:04;;;;;;;6.57;3.15;;;;;;;;;;4992129;28;20484;-68
2021/08/31 12:08:31;;;;;;;8.73;3.70;;;;;;;;;;4991706;28;20575;-68
2021/08/31 12:10:57;;;;;;;7.47;3.97;;;;;;;;;;4994917;28;20612;-69
2021/08/31 12:13:22;;;;;;;12.15;3.80;;;;;;;;;;4990006;28;20279;-69
2021/08/31 12:15:49;;;;;;;9.02;3.67;;;;;;;;;;4994368;28;20179;-69
2021/08/31 12:18:16;;;;;;;6.65;3.22;;;;;;;;;;4993131;28;20192;-69
2021/08/31 12:20:41;;;;;;;6.70;3.80;;;;;;;;;;4993918;28;20255;-68
2021/08/31 12:23:06;;;;;;;8.93;3.08;;;;;;;;;;4993983;28;20184;-69
2021/08/31 12:25:48;;;;;;;11.00;3.92;;;;;;;;;;4994061;28;20238;-69
2021/08/31 12:28:13;;;;;;;8.82;3.33;;;;;;;;;;4992475;28;20202;-69
2021/08/31 12:30:43;;;;;;;6.90;2.88;;;;;;;;;;4993618;28;20176;-68
2021/08/31 12:33:09;;;;;;;7.80;3.50;;;;;;;;;;4993843;28;20210;-69
2021/08/31 12:35:38;;;;;;;8.38;2.90;;;;;;;;;;4993785;28;20191;-69
2021/08/31 12:38:17;;;;;;;7.20;2.95;;;;;;;;;;4992371;28;20191;-69
2021/08/31 12:40:51;;;;;;;5.57;2.90;;;;;;;;;;4993440;28;20263;-68
2021/08/31 12:43:17;;;;;;;7.50;3.22;;;;;;;;;;4993665;28;20173;-71
2021/08/31 12:45:46;;;;;;;6.95;3.38;;;;;;;;;;4993708;28;20186;-69
2021/08/31 12:48:12;;;;;;;8.02;3.67;;;;;;;;;;4993290;28;20230;-68
2021/08/31 12:50:48;;;;;;;8.63;3.03;;;;;;;;;;4993236;28;20223;-69
2021/08/31 12:53:14;;;;;;;6.97;3.55;;;;;;;;;;4993340;28;20202;-68
2021/08/31 12:55:39;;;;;;;8.00;3.07;;;;;;;;;;4993268;28;20180;-69
2021/08/31 12:58:25;;;;;;;9.18;3.50;;;;;;;;;;4993040;28;20283;-68
2021/08/31 13:01:09;;;;;;;6.88;3.33;;;;;;;;;;4982342;28;20175;-69
2021/08/31 13:03:35;;;;;;;9.52;3.35;;;;;;;;;;4990815;28;20187;-69
2021/08/31 13:06:01;;;;;;;10.40;3.25;;;;;;;;;;4988943;28;20172;-69
2021/08/31 13:08:26;;;;;;;6.13;3.30;;;;;;;;;;4992898;28;20744;-69
2021/08/31 13:10:51;;;;;;;8.53;3.20;;;;;;;;;;4993402;28;20661;-69
2021/08/31 13:13:30;;;;;;;7.63;3.90;;;;;;;;;;4991873;28;20465;-69
2021/08/31 13:15:55;;;;;;;7.60;3.05;;;;;;;;;;4989104;28;20409;-69
2021/08/31 13:18:20;;;;;;;9.73;3.20;;;;;;;;;;4992329;28;20196;-69
2021/08/31 13:20:45;;;;;;;6.47;2.80;;;;;;;;;;4993080;28;20437;-67
2021/08/31 13:23:10;;;;;;;8.97;3.33;;;;;;;;;;4992833;28;20425;-67
2021/08/31 13:25:36;;;;;;;12.23;3.20;;;;;;;;;;4992951;28;20552;-67
2021/08/31 13:28:01;;;;;;;8.05;3.30;;;;;;;;;;4992552;28;20681;-68
2021/08/31 13:30:26;;;;;;;10.13;3.70;;;;;;;;;;4992616;28;20176;-68
2021/08/31 13:32:51;;;;;;;8.17;3.40;;;;;;;;;;4992580;28;20199;-69
2021/08/31 13:35:16;;;;;;;8.10;3.33;;;;;;;;;;4992838;28;20184;-70
2021/08/31 13:37:42;;;;;;;8.77;3.07;;;;;;;;;;4992624;28;20200;-69
2021/08/31 13:40:07;;;;;;;6.75;3.10;;;;;;;;;;4992772;28;20405;-69
2021/08/31 13:42:32;;;;;;;9.02;3.72;;;;;;;;;;4992500;28;20179;-67
2021/08/31 13:44:57;;;;;;;8.30;2.80;;;;;;;;;;4992465;28;20245;-68
2021/08/31 13:47:23;;;;;;;8.90;3.07;;;;;;;;;;4992140;28;20278;-68
2021/08/31 13:49:48;;;;;;;6.07;2.60;;;;;;;;;;4991910;28;20179;-69
2021/08/31 13:52:13;;;;;;;6.83;2.73;;;;;;;;;;4991690;28;20282;-69
2021/08/31 13:54:39;;;;;;;7.50;2.92;;;;;;;;;;4992562;28;20211;-68
2021/08/31 13:57:04;;;;;;;5.57;2.95;;;;;;;;;;4990952;28;20624;-69
2021/08/31 13:59:30;;;;;;;5.37;2.77;;;;;;;;;;4990870;28;20614;-68
2021/08/31 14:01:55;;;;;;;6.20;2.63;;;;;;;;;;4992026;28;20171;-69
2021/08/31 14:04:20;;;;;;;7.97;3.40;;;;;;;;;;4986546;28;20413;-68
2021/08/31 14:06:45;;;;;;;5.90;2.80;;;;;;;;;;5006555;23;20961;-70
2021/08/31 14:09:11;;;;;;;10.53;3.03;;;;;;;;;;5011060;28;20416;-71
2021/08/31 14:11:36;;;;;;;11.65;3.45;;;;;;;;;;5000876;28;20401;-69
2021/08/31 14:14:01;;;;;;;9.00;3.50;;;;;;;;;;5011679;28;20293;-70
2021/08/31 14:16:26;;;;;;;7.07;2.78;;;;;;;;;;5011643;28;20545;-70
2021/08/31 14:18:52;;;;;;;7.10;2.60;;;;;;;;;;5010631;28;20191;-70
2021/08/31 14:21:19;;;;;;;5.03;2.40;;;;;;;;;;5010817;28;20419;-70
2021/08/31 14:23:44;;;;;;;4.60;2.55;;;;;;;;;;5011389;28;20186;-70
2021/08/31 14:26:09;;;;;;;4.93;2.90;;;;;;;;;;5011356;28;20179;-70
2021/08/31 14:28:34;;;;;;;6.30;2.83;;;;;;;;;;5010374;28;20223;-70
2021/08/31 14:31:01;;;;;;;10.88;2.67;;;;;;;;;;5011333;28;20409;-70
2021/08/31 14:33:26;;;;;;;7.22;2.40;;;;;;;;;;5011478;28;20293;-70